Time;durP1;ratioP1;P1;durP2;ratioP2;P2;SDS_P1;SDS_P2;PMS_P1;PMS_P2;Temp;Humidity;BMP_temperature;BMP_pressure;BME280_temperature;BME280_humidity;BME280_pressure;Samples;Min_cycle;Max_cycle;Signal;HPM_P1;HPM_P2
2021/04/07 00:02:11;;;;;;;4.60;2.80;;;;;;;2.70;61.11;100031.41;6233047;23;20021;-85
2021/04/07 00:04:37;;;;;;;4.93;3.08;;;;;;;2.58;61.11;100034.28;6199593;23;20025;-85
2021/04/07 00:07:04;;;;;;;4.03;2.95;;;;;;;2.49;61.62;100042.34;6221426;23;20100;-84
2021/04/07 00:09:30;;;;;;;5.68;2.50;;;;;;;2.45;60.75;100039.78;6222294;23;20068;-83
2021/04/07 00:11:56;;;;;;;3.50;2.22;;;;;;;2.43;59.59;100038.06;6207012;23;20035;-82
2021/04/07 00:14:23;;;;;;;5.07;2.25;;;;;;;2.37;59.30;100036.44;6234813;23;20435;-83
2021/04/07 00:16:50;;;;;;;2.05;1.85;;;;;;;2.30;59.28;100044.44;6230255;23;20028;-84
2021/04/07 00:19:17;;;;;;;5.20;2.30;;;;;;;2.22;59.05;100039.34;6222531;23;20031;-84
2021/04/07 00:21:43;;;;;;;3.35;2.30;;;;;;;2.13;58.99;100047.34;6228501;23;20029;-85
2021/04/07 00:24:10;;;;;;;3.45;2.03;;;;;;;1.98;59.72;100038.06;6236703;23;20024;-84
2021/04/07 00:26:36;;;;;;;3.72;2.10;;;;;;;1.96;59.57;100039.81;6234453;23;20039;-84
2021/04/07 00:29:03;;;;;;;4.45;2.25;;;;;;;2.06;59.53;100045.72;6231570;23;20020;-84
2021/04/07 00:31:30;;;;;;;5.47;3.33;;;;;;;2.14;59.32;100049.09;6229978;23;20032;-84
2021/04/07 00:33:56;;;;;;;4.57;2.20;;;;;;;2.17;59.05;100043.81;6231142;23;20024;-84
2021/04/07 00:36:22;;;;;;;3.78;2.28;;;;;;;2.22;59.21;100055.00;6237082;23;20054;-84
2021/04/07 00:38:48;;;;;;;4.25;2.78;;;;;;;2.22;59.12;100048.94;6237943;23;20036;-84
2021/04/07 00:41:14;;;;;;;7.10;2.72;;;;;;;2.37;58.83;100053.84;6206400;23;20047;-83
2021/04/07 00:43:40;;;;;;;5.53;2.95;;;;;;;2.38;59.25;100056.44;6229490;23;20056;-83
2021/04/07 00:46:06;;;;;;;4.57;3.00;;;;;;;2.46;59.37;100062.41;6232274;23;20339;-84
2021/04/07 00:48:34;;;;;;;6.82;3.38;;;;;;;2.50;59.83;100058.00;6237628;23;20018;-85
2021/04/07 00:51:00;;;;;;;4.82;3.10;;;;;;;2.51;59.86;100058.84;6230621;23;20028;-85
2021/04/07 00:53:27;;;;;;;4.65;3.50;;;;;;;2.52;60.11;100060.56;6230590;23;20031;-83
2021/04/07 00:55:53;;;;;;;5.95;3.75;;;;;;;2.54;60.38;100056.16;6233271;23;20024;-83
2021/04/07 00:58:19;;;;;;;5.40;3.90;;;;;;;2.51;60.52;100053.63;6239438;23;20009;-84
2021/04/07 01:00:46;;;;;;;6.57;3.63;;;;;;;2.50;60.62;100064.97;6239199;23;20025;-83
2021/04/07 01:03:12;;;;;;;5.25;4.03;;;;;;;2.46;60.23;100064.16;6240817;23;20012;-83
2021/04/07 01:05:40;;;;;;;7.63;3.70;;;;;;;2.44;60.58;100056.34;6242334;23;20024;-84
2021/04/07 01:08:06;;;;;;;6.15;3.85;;;;;;;2.44;60.29;100051.13;6241881;23;20012;-84
2021/04/07 01:10:37;;;;;;;6.88;3.60;;;;;;;2.38;60.30;100050.38;6240610;23;20008;-83
2021/04/07 01:13:04;;;;;;;6.65;3.60;;;;;;;2.48;60.75;100072.84;6239940;23;20013;-84
2021/04/07 01:15:31;;;;;;;5.53;4.22;;;;;;;2.51;60.23;100069.31;6242387;23;20008;-84
2021/04/07 01:17:58;;;;;;;5.65;3.92;;;;;;;2.42;60.63;100072.94;6236714;23;20012;-84
2021/04/07 01:20:24;;;;;;;6.85;4.13;;;;;;;2.46;60.59;100083.31;6223289;23;20028;-83
2021/04/07 01:22:55;;;;;;;6.40;3.90;;;;;;;2.43;59.99;100080.75;6223743;23;20027;-84
2021/04/07 01:25:21;;;;;;;6.15;4.45;;;;;;;2.44;59.94;100086.84;6221144;23;20418;-83
2021/04/07 01:27:48;;;;;;;6.10;3.92;;;;;;;2.42;59.89;100084.25;6222043;23;20047;-84
2021/04/07 01:30:17;;;;;;;8.02;4.30;;;;;;;2.42;60.01;100092.09;6198861;23;20051;-84
2021/04/07 01:32:44;;;;;;;8.02;4.03;;;;;;;2.44;59.06;100108.59;6218596;23;20027;-84
2021/04/07 01:35:12;;;;;;;8.40;4.40;;;;;;;2.44;59.58;100102.53;6223294;23;20048;-84
2021/04/07 01:37:40;;;;;;;7.50;4.35;;;;;;;2.41;59.09;100102.56;6235239;23;20039;-85
2021/04/07 01:40:10;;;;;;;8.35;3.97;;;;;;;2.41;58.81;100102.56;6234325;23;20021;-85
2021/04/07 01:42:39;;;;;;;6.35;4.00;;;;;;;2.35;58.87;100093.13;6234284;23;20024;-85
2021/04/07 01:45:06;;;;;;;5.07;4.10;;;;;;;2.40;59.45;100109.53;6232461;23;20040;-85
2021/04/07 01:47:33;;;;;;;6.95;4.05;;;;;;;2.41;58.72;100105.19;6223573;23;20035;-84
2021/04/07 01:50:00;;;;;;;7.88;4.55;;;;;;;2.49;58.33;100112.91;6221839;23;20020;-85
2021/04/07 01:52:28;;;;;;;8.15;4.28;;;;;;;2.45;59.04;100112.09;6221013;23;20056;-83
2021/04/07 01:54:55;;;;;;;8.15;4.60;;;;;;;2.44;59.24;100111.22;6225703;23;20076;-85
2021/04/07 01:57:22;;;;;;;7.38;4.30;;;;;;;2.57;59.07;100118.81;6228843;23;20065;-85
2021/04/07 01:59:49;;;;;;;7.93;4.50;;;;;;;2.51;59.13;100121.56;6232616;23;20172;-85
2021/04/07 02:02:15;;;;;;;8.20;5.00;;;;;;;2.46;59.52;100109.44;6235412;23;20048;-85
2021/04/07 02:04:41;;;;;;;7.22;4.55;;;;;;;2.47;59.88;100108.56;6206746;23;20039;-85
2021/04/07 02:07:12;;;;;;;9.38;5.00;;;;;;;2.50;60.24;100123.31;6236887;23;20035;-86
2021/04/07 02:09:40;;;;;;;8.38;4.68;;;;;;;2.50;60.09;100119.84;6236549;23;20000;-85
2021/04/07 02:12:08;;;;;;;8.65;4.70;;;;;;;2.50;60.59;100117.25;6237273;23;20048;-84
2021/04/07 02:14:37;;;;;;;6.47;5.18;;;;;;;2.47;60.97;100116.41;6235730;23;20020;-84
2021/04/07 02:17:04;;;;;;;9.52;5.05;;;;;;;2.45;61.13;100126.03;6237848;23;20024;-85
2021/04/07 02:19:33;;;;;;;10.07;5.03;;;;;;;2.43;60.99;100126.94;6238730;23;20058;-85
2021/04/07 02:22:02;;;;;;;9.63;4.90;;;;;;;2.41;60.56;100133.94;6213272;23;20195;-84
2021/04/07 02:24:29;;;;;;;10.77;5.38;;;;;;;2.41;60.31;100132.19;6237017;23;20031;-85
2021/04/07 02:27:00;;;;;;;8.93;5.10;;;;;;;2.45;60.16;100130.38;6232567;23;20051;-84
2021/04/07 02:29:26;;;;;;;8.70;5.25;;;;;;;2.39;60.47;100128.72;6232499;23;20035;-85
2021/04/07 02:31:55;;;;;;;10.48;5.28;;;;;;;2.35;60.64;100129.69;6233243;23;20096;-84
2021/04/07 02:34:21;;;;;;;10.27;5.30;;;;;;;2.26;60.58;100121.13;6238006;23;20024;-81
2021/04/07 02:36:47;;;;;;;10.13;5.40;;;;;;;2.24;60.96;100130.75;6211980;23;20012;-86
2021/04/07 02:39:13;;;;;;;11.45;5.45;;;;;;;2.26;60.39;100150.75;6235596;23;20028;-84
2021/04/07 02:41:39;;;;;;;9.02;5.18;;;;;;;2.21;60.07;100149.09;6230127;23;20016;-83
2021/04/07 02:44:05;;;;;;;10.18;4.63;;;;;;;2.17;59.01;100155.28;6230150;23;20398;-84
2021/04/07 02:46:32;;;;;;;7.03;5.05;;;;;;;2.09;59.35;100142.31;6231913;23;20029;-80
2021/04/07 02:48:58;;;;;;;8.48;4.78;;;;;;;2.01;59.52;100149.44;6237755;23;20020;-81
2021/04/07 02:51:24;;;;;;;9.27;4.68;;;;;;;1.97;60.46;100146.00;6238942;23;20031;-83
2021/04/07 02:53:51;;;;;;;7.63;4.10;;;;;;;1.96;59.54;100153.84;6239129;23;20020;-83
2021/04/07 02:56:17;;;;;;;7.85;4.13;;;;;;;1.90;59.17;100156.56;6234963;23;20028;-85
2021/04/07 02:58:43;;;;;;;9.98;4.38;;;;;;;1.89;59.78;100155.69;6234298;23;20024;-82
2021/04/07 03:01:09;;;;;;;7.82;4.47;;;;;;;1.96;59.70;100156.47;6229019;23;20028;-82
2021/04/07 03:03:35;;;;;;;7.72;4.35;;;;;;;2.00;59.02;100168.59;6235515;23;20024;-82
2021/04/07 03:06:01;;;;;;;8.25;4.25;;;;;;;2.04;59.15;100170.28;6231486;23;20091;-83
2021/04/07 03:08:30;;;;;;;9.82;4.40;;;;;;;2.09;59.34;100166.69;6231590;23;20024;-84
2021/04/07 03:10:56;;;;;;;8.18;4.40;;;;;;;2.12;58.71;100163.16;6231652;23;20017;-83
2021/04/07 03:13:22;;;;;;;10.27;4.35;;;;;;;2.15;58.83;100172.72;6233528;23;20013;-83
2021/04/07 03:15:48;;;;;;;7.65;4.60;;;;;;;2.15;58.98;100178.81;6229762;23;20024;-84
2021/04/07 03:18:14;;;;;;;30.88;15.55;;;;;;;2.21;58.76;100181.28;6228131;23;20028;-85
2021/04/07 03:20:40;;;;;;;8.05;5.00;;;;;;;2.27;58.27;100173.38;6229418;23;20027;-84
2021/04/07 03:23:06;;;;;;;10.43;4.22;;;;;;;2.26;57.07;100179.47;6229075;23;20025;-84
2021/04/07 03:25:32;;;;;;;7.50;3.70;;;;;;;2.23;56.63;100176.03;6203452;23;20072;-83
2021/04/07 03:27:58;;;;;;;6.78;3.45;;;;;;;2.24;56.31;100177.78;6207000;23;20044;-85
2021/04/07 03:30:25;;;;;;;8.57;3.28;;;;;;;2.22;56.38;100179.53;6227512;23;20040;-83
2021/04/07 03:32:51;;;;;;;8.50;3.30;;;;;;;2.20;56.49;100176.13;6235291;23;20031;-84
2021/04/07 03:35:17;;;;;;;7.25;3.67;;;;;;;2.35;57.48;100184.56;6232138;23;20016;-83
2021/04/07 03:37:43;;;;;;;10.05;4.18;;;;;;;2.38;57.50;100192.31;6232158;23;20040;-84
2021/04/07 03:40:10;;;;;;;11.00;4.30;;;;;;;2.36;58.55;100193.28;6233716;23;20044;-84
2021/04/07 03:42:36;;;;;;;7.88;4.15;;;;;;;2.24;58.65;100196.94;6208680;23;20005;-83
2021/04/07 03:45:03;;;;;;;9.77;4.53;;;;;;;2.15;59.39;100183.16;6232270;23;20040;-84
2021/04/07 03:47:34;;;;;;;9.15;4.20;;;;;;;2.18;58.85;100199.66;6232793;23;20036;-83
2021/04/07 03:50:01;;;;;;;8.32;4.45;;;;;;;2.16;59.33;100197.94;6235111;23;20244;-85
2021/04/07 03:52:28;;;;;;;9.93;4.63;;;;;;;2.16;59.80;100209.25;6238205;23;20020;-83
2021/04/07 03:54:57;;;;;;;9.85;3.90;;;;;;;2.13;60.01;100211.91;6204956;23;20080;-84
2021/04/07 03:57:23;;;;;;;12.27;4.55;;;;;;;2.10;60.37;100209.34;6201621;23;20028;-83
2021/04/07 03:59:50;;;;;;;11.77;4.40;;;;;;;2.08;60.71;100211.13;6224563;23;20055;-83
2021/04/07 04:02:16;;;;;;;14.05;4.05;;;;;;;2.07;60.79;100206.78;6224144;23;20048;-84
2021/04/07 04:04:43;;;;;;;6.93;3.88;;;;;;;2.07;60.68;100206.78;6224279;23;20062;-84
2021/04/07 04:07:10;;;;;;;13.23;4.30;;;;;;;2.09;60.88;100216.31;6222621;23;20024;-83
2021/04/07 04:09:36;;;;;;;9.90;4.03;;;;;;;2.08;60.71;100203.28;6222671;23;20024;-84
2021/04/07 04:12:02;;;;;;;9.75;3.10;;;;;;;2.10;59.91;100209.34;6223296;23;20024;-82
2021/04/07 04:14:28;;;;;;;5.97;3.47;;;;;;;2.05;59.93;100208.53;6223903;23;20037;-84
2021/04/07 04:16:54;;;;;;;8.32;3.47;;;;;;;2.06;60.08;100218.09;6234506;23;20021;-80
2021/04/07 04:19:20;;;;;;;8.70;3.65;;;;;;;1.95;60.18;100218.28;6237691;23;20029;-82
2021/04/07 04:21:46;;;;;;;8.40;3.58;;;;;;;1.95;60.25;100222.63;6238924;23;20024;-82
2021/04/07 04:24:13;;;;;;;6.80;3.25;;;;;;;1.95;60.18;100218.28;6234581;23;20051;-83
2021/04/07 04:26:39;;;;;;;7.65;3.00;;;;;;;1.99;59.43;100233.03;6234436;23;20024;-83
2021/04/07 04:29:05;;;;;;;8.80;3.22;;;;;;;1.93;59.73;100209.59;6209588;23;20039;-84
2021/04/07 04:31:33;;;;;;;8.73;3.20;;;;;;;2.00;60.17;100234.75;6237314;23;20059;-85
2021/04/07 04:33:59;;;;;;;10.18;3.45;;;;;;;2.04;60.00;100222.53;6212858;23;20016;-86
2021/04/07 04:36:26;;;;;;;10.10;3.45;;;;;;;2.02;60.85;100238.22;6224274;23;20012;-85
2021/04/07 04:38:52;;;;;;;6.35;2.80;;;;;;;2.01;60.93;100251.28;6196186;23;20349;-84
2021/04/07 04:41:18;;;;;;;8.73;2.78;;;;;;;1.97;61.64;100253.06;6227613;23;20016;-84
2021/04/07 04:43:45;;;;;;;11.23;3.35;;;;;;;1.99;62.14;100250.44;6238723;23;20034;-84
2021/04/07 04:46:11;;;;;;;11.98;2.95;;;;;;;2.02;62.10;100261.72;6239994;23;20020;-82
2021/04/07 04:48:37;;;;;;;10.07;3.10;;;;;;;2.01;62.68;100261.72;6233687;23;20128;-82
2021/04/07 04:51:04;;;;;;;7.07;2.78;;;;;;;2.04;62.72;100256.47;6235710;23;20020;-83
2021/04/07 04:53:30;;;;;;;6.45;3.00;;;;;;;2.12;62.27;100257.22;6223010;23;20103;-83
2021/04/07 04:55:57;;;;;;;9.15;3.40;;;;;;;2.13;62.06;100263.28;6224171;23;20075;-84
2021/04/07 04:58:23;;;;;;;8.48;2.95;;;;;;;2.17;61.72;100267.59;6196886;23;20095;-84
2021/04/07 05:00:49;;;;;;;7.03;2.70;;;;;;;2.12;61.74;100262.44;6222041;23;20115;-84
2021/04/07 05:03:15;;;;;;;7.55;2.53;;;;;;;2.13;62.17;100261.53;6225897;23;20021;-85
2021/04/07 05:05:43;;;;;;;6.43;3.00;;;;;;;2.20;61.64;100268.41;6236787;23;20084;-84
2021/04/07 05:08:12;;;;;;;8.02;2.58;;;;;;;2.27;60.62;100272.66;6237304;23;20028;-83
2021/04/07 05:10:38;;;;;;;5.93;2.20;;;;;;;2.22;60.93;100271.84;6237680;23;20019;-83
2021/04/07 05:13:04;;;;;;;8.85;2.33;;;;;;;2.17;60.66;100264.97;6214922;23;20016;-83
2021/04/07 05:15:30;;;;;;;9.32;2.47;;;;;;;2.22;60.51;100282.28;6240889;23;20055;-84
2021/04/07 05:17:56;;;;;;;8.57;2.15;;;;;;;2.29;59.97;100285.69;6238504;23;20039;-84
2021/04/07 05:20:23;;;;;;;7.38;2.20;;;;;;;2.32;59.69;100296.09;6238478;23;20035;-84
2021/04/07 05:22:52;;;;;;;7.30;2.00;;;;;;;2.33;60.08;100298.69;6237708;23;20024;-83
2021/04/07 05:25:18;;;;;;;9.25;2.38;;;;;;;2.41;60.06;100298.56;6235272;23;20020;-83
2021/04/07 05:27:44;;;;;;;11.45;3.03;;;;;;;2.39;60.38;100298.59;6234745;23;20031;-83
2021/04/07 05:30:11;;;;;;;9.15;2.70;;;;;;;2.38;61.16;100306.44;6233064;23;20021;-83
2021/04/07 05:32:37;;;;;;;8.07;3.20;;;;;;;2.34;60.87;100299.56;6237900;23;20017;-83
2021/04/07 05:35:03;;;;;;;9.15;3.08;;;;;;;2.34;61.26;100313.50;6239078;23;20016;-83
2021/04/07 05:37:29;;;;;;;6.75;2.33;;;;;;;2.45;58.96;100322.03;6237258;23;20012;-85
2021/04/07 05:39:57;;;;;;;5.97;2.08;;;;;;;2.43;59.09;100321.19;6235576;23;20016;-84
2021/04/07 05:42:24;;;;;;;7.40;1.90;;;;;;;2.37;58.52;100316.03;6231573;23;20095;-84
2021/04/07 05:44:51;;;;;;;10.70;2.22;;;;;;;2.49;58.71;100324.59;6235454;23;20024;-83
2021/04/07 05:47:17;;;;;;;8.50;2.17;;;;;;;2.46;58.95;100322.88;6229973;23;20031;-83
2021/04/07 05:49:43;;;;;;;7.63;2.15;;;;;;;2.41;59.46;100317.72;6225636;23;20036;-82
2021/04/07 05:52:09;;;;;;;6.78;2.25;;;;;;;2.53;58.66;100334.09;6228923;23;20024;-85
2021/04/07 05:54:35;;;;;;;10.70;4.28;;;;;;;2.54;60.22;100335.81;6239336;23;20023;-84
2021/04/07 05:57:02;;;;;;;7.10;2.08;;;;;;;2.60;59.20;100333.13;6241442;23;20028;-85
2021/04/07 05:59:30;;;;;;;7.72;2.30;;;;;;;2.69;58.59;100343.44;6241693;23;20047;-85
2021/04/07 06:01:56;;;;;;;5.28;1.83;;;;;;;2.73;59.16;100339.88;6240382;23;20024;-84
2021/04/07 06:04:22;;;;;;;6.32;2.10;;;;;;;2.80;59.14;100344.16;6239874;23;20028;-83
2021/04/07 06:06:48;;;;;;;6.80;1.73;;;;;;;2.80;58.44;100342.41;6236308;23;20024;-83
2021/04/07 06:09:14;;;;;;;5.57;1.55;;;;;;;2.91;58.13;100343.97;6235226;23;20039;-83
2021/04/07 06:11:41;;;;;;;7.22;1.83;;;;;;;2.97;57.57;100344.72;6232235;23;20564;-83
2021/04/07 06:14:07;;;;;;;8.77;2.28;;;;;;;3.04;57.22;100345.47;6228791;23;20042;-84
2021/04/07 06:16:33;;;;;;;5.55;1.77;;;;;;;3.09;57.34;100341.91;6203326;23;20031;-84
2021/04/07 06:19:00;;;;;;;6.20;2.08;;;;;;;3.14;57.11;100347.06;6228335;23;20033;-82
2021/04/07 06:21:27;;;;;;;7.32;1.70;;;;;;;3.29;65.12;100340.69;6226419;23;20024;-85
2021/04/07 06:23:53;;;;;;;10.18;1.70;;;;;;;3.57;64.10;100344.50;6226050;23;20020;-83
2021/04/07 06:26:19;;;;;;;6.22;1.98;;;;;;;3.61;57.19;100348.81;6203485;23;20604;-84
2021/04/07 06:28:47;;;;;;;6.57;1.80;;;;;;;3.66;56.22;100351.31;6206448;23;20036;-83
2021/04/07 06:31:16;;;;;;;6.72;1.83;;;;;;;3.77;55.93;100349.38;6232047;23;20096;-84
2021/04/07 06:33:42;;;;;;;4.80;1.55;;;;;;;3.80;56.13;100344.91;6205383;23;20024;-85
2021/04/07 06:36:09;;;;;;;8.70;2.10;;;;;;;3.90;55.97;100356.06;6232687;23;20039;-83
2021/04/07 06:38:37;;;;;;;6.43;2.08;;;;;;;3.87;55.30;100361.38;6229165;23;20066;-84
2021/04/07 06:41:05;;;;;;;5.93;2.25;;;;;;;3.96;55.93;100355.06;6230116;23;20066;-85
2021/04/07 06:43:37;;;;;;;14.18;1.92;;;;;;;4.00;55.72;100341.00;6233757;23;20017;-83
2021/04/07 06:46:08;;;;;;;6.57;2.08;;;;;;;4.27;55.13;100343.03;6232888;23;20024;-84
2021/04/07 06:48:35;;;;;;;9.07;1.92;;;;;;;4.90;53.19;100343.28;6229808;23;20051;-85
2021/04/07 06:51:02;;;;;;;5.55;2.08;;;;;;;5.16;52.23;100363.66;6226078;23;20090;-84
2021/04/07 06:53:31;;;;;;;8.05;2.45;;;;;;;5.07;51.71;100350.75;6228589;23;20046;-84
2021/04/07 06:55:57;;;;;;;5.80;2.22;;;;;;;4.80;51.96;100346.19;6230925;23;20029;-84
2021/04/07 06:58:23;;;;;;;5.93;1.60;;;;;;;4.48;53.28;100347.81;6230187;23;20025;-85
2021/04/07 07:00:49;;;;;;;7.13;2.03;;;;;;;4.34;53.53;100356.88;6205897;23;20020;-84
2021/04/07 07:03:18;;;;;;;6.55;1.90;;;;;;;4.18;54.07;100364.22;6227350;23;20020;-85
2021/04/07 07:05:49;;;;;;;6.55;1.90;;;;;;;4.05;54.25;100366.25;6228658;23;20028;-84
2021/04/07 07:08:35;;;;;;;10.27;2.10;;;;;;;3.89;55.30;100354.34;6203137;23;20080;-84
2021/04/07 07:11:16;;;;;;;10.20;2.53;;;;;;;3.90;56.37;100365.69;6226842;23;20033;-83
2021/04/07 07:13:43;;;;;;;10.48;2.88;;;;;;;3.92;55.90;100362.16;6230346;23;20021;-83
2021/04/07 07:16:25;;;;;;;9.18;1.90;;;;;;;3.96;56.07;100369.03;6205703;23;20056;-83
2021/04/07 07:18:54;;;;;;;5.72;1.90;;;;;;;4.06;56.37;100367.97;6237345;23;20024;-84
2021/04/07 07:21:21;;;;;;;4.60;2.20;;;;;;;4.10;56.47;100376.59;6238807;23;20017;-85
2021/04/07 07:23:48;;;;;;;5.75;2.00;;;;;;;4.07;56.28;100374.94;6239875;23;20005;-83
2021/04/07 07:26:18;;;;;;;4.03;1.83;;;;;;;4.04;55.85;100369.75;6240070;23;20043;-86
2021/04/07 07:28:57;;;;;;;6.47;2.25;;;;;;;4.04;56.45;100374.13;6239576;23;20028;-84
2021/04/07 07:31:24;;;;;;;9.30;2.25;;;;;;;4.09;57.16;100375.75;6240419;23;20008;-83
2021/04/07 07:33:55;;;;;;;9.23;2.60;;;;;;;4.05;57.50;100386.34;6238992;23;20021;-83
2021/04/07 07:36:22;;;;;;;6.85;2.20;;;;;;;3.97;58.42;100383.00;6228997;23;20031;-83
2021/04/07 07:38:52;;;;;;;5.70;2.20;;;;;;;3.99;58.97;100389.06;6235108;23;20025;-85
2021/04/07 07:41:23;;;;;;;5.43;2.08;;;;;;;4.13;58.38;100400.13;6239789;23;20027;-84
2021/04/07 07:43:51;;;;;;;8.70;2.20;;;;;;;4.03;59.72;100390.75;6234058;23;20036;-84
2021/04/07 07:46:26;;;;;;;3.85;1.98;;;;;;;4.00;61.30;100401.28;6223912;23;20027;-83
2021/04/07 07:48:53;;;;;;;5.82;2.38;;;;;;;3.96;61.31;100407.47;6222748;23;20024;-83
2021/04/07 07:51:22;;;;;;;8.18;2.80;;;;;;;4.06;67.31;100414.28;6223240;23;20051;-83
2021/04/07 07:53:53;;;;;;;10.80;2.88;;;;;;;4.08;62.69;100404.63;6222510;23;20765;-84
2021/04/07 07:56:40;;;;;;;7.53;2.60;;;;;;;3.99;62.87;100412.66;6221732;23;20024;-84
2021/04/07 07:59:07;;;;;;;8.02;2.75;;;;;;;4.04;62.01;100418.66;6225932;23;20047;-85
2021/04/07 08:01:50;;;;;;;6.70;2.80;;;;;;;4.10;61.63;100415.91;6231135;23;20025;-83
2021/04/07 08:04:18;;;;;;;10.02;3.22;;;;;;;4.04;62.72;100408.19;6227472;23;20021;-84
2021/04/07 08:06:45;;;;;;;6.03;2.78;;;;;;;4.18;62.98;100414.00;6199581;23;20020;-83
2021/04/07 08:09:13;;;;;;;8.93;2.80;;;;;;;4.30;62.35;100423.38;6222708;23;20350;-83
2021/04/07 08:11:43;;;;;;;9.32;3.20;;;;;;;4.26;62.02;100421.69;6226913;23;20494;-84
2021/04/07 08:14:17;;;;;;;5.70;3.33;;;;;;;4.26;61.63;100421.69;6223766;23;20123;-82
2021/04/07 08:16:47;;;;;;;4.97;2.95;;;;;;;4.30;61.06;100428.63;6225104;23;20017;-83
2021/04/07 08:19:15;;;;;;;8.32;2.90;;;;;;;4.40;60.45;100417.06;6224394;23;20055;-84
2021/04/07 08:21:45;;;;;;;7.78;3.22;;;;;;;4.54;60.21;100417.63;6226553;23;20021;-85
2021/04/07 08:24:12;;;;;;;8.48;2.85;;;;;;;4.45;59.71;100416.03;6197505;23;20407;-84
2021/04/07 08:26:42;;;;;;;9.48;3.00;;;;;;;4.38;59.51;100409.22;6228419;23;20039;-84
2021/04/07 08:29:09;;;;;;;6.70;2.78;;;;;;;4.44;58.86;100410.81;6223165;23;20047;-84
2021/04/07 08:31:38;;;;;;;5.65;2.60;;;;;;;4.51;58.38;100418.53;6225060;23;20029;-84
2021/04/07 08:34:09;;;;;;;6.72;3.13;;;;;;;4.56;57.58;100403.56;6227665;23;20028;-83
2021/04/07 08:36:41;;;;;;;9.43;2.95;;;;;;;4.57;59.56;100409.66;6207180;23;20020;-85
2021/04/07 08:39:10;;;;;;;4.35;2.63;;;;;;;4.72;58.78;100411.09;6237652;23;20063;-85
2021/04/07 08:41:37;;;;;;;7.95;2.95;;;;;;;4.87;57.63;100414.22;6240021;23;20020;-86
2021/04/07 08:44:07;;;;;;;8.38;3.00;;;;;;;4.97;56.79;100420.13;6241569;23;20016;-83
2021/04/07 08:47:30;;;;;;;6.72;1.80;;;;;;;4.97;56.47;100421.88;5138629;27;20738;-85
2021/04/07 08:50:05;;;;;;;5.05;2.95;;;;;;;4.99;56.25;100410.44;5112385;28;20071;-83
2021/04/07 08:52:54;;;;;;;5.68;2.22;;;;;;;5.11;55.48;100404.91;5113150;28;20082;-83
2021/04/07 08:55:28;;;;;;;;;;;;;;;5.40;55.75;100411.16;5118895;28;20050;-83
2021/04/07 08:58:04;;;;;;;5.97;1.98;;;;;;;5.54;54.37;100412.53;5159126;27;19928;-84
2021/04/07 09:00:37;;;;;;;4.07;2.03;;;;;;;5.60;53.13;100412.38;5117996;28;20050;-82
2021/04/07 09:03:16;;;;;;;4.20;1.92;;;;;;;5.54;54.19;100414.31;5129997;28;20384;-83
2021/04/07 09:05:46;;;;;;;8.80;2.08;;;;;;;5.45;54.07;100411.94;5132129;28;20070;-83
2021/04/07 09:08:28;;;;;;;3.70;1.60;;;;;;;5.33;54.51;100409.63;5115226;27;20036;-83
2021/04/07 09:10:59;;;;;;;5.65;1.80;;;;;;;5.38;54.84;100418.22;5111449;28;20047;-83
2021/04/07 09:13:32;;;;;;;3.80;1.40;;;;;;;5.37;54.57;100419.97;5115270;28;20075;-86
2021/04/07 09:16:06;;;;;;;4.22;2.00;;;;;;;5.40;54.91;100414.66;5114697;28;20068;-84
2021/04/07 09:18:44;;;;;;;5.10;1.60;;;;;;;5.50;54.01;100407.44;5127663;28;20044;-85
2021/04/07 09:21:17;;;;;;;4.00;1.50;;;;;;;5.53;53.24;100417.81;5114974;27;20032;-86
2021/04/07 09:23:52;;;;;;;3.58;1.63;;;;;;;5.55;52.98;100414.25;5126119;28;20066;-84
2021/04/07 09:26:22;;;;;;;3.47;1.45;;;;;;;5.59;52.84;100410.66;5119409;28;20067;-84
2021/04/07 09:28:50;;;;;;;4.27;1.53;;;;;;;5.67;52.58;100410.44;5109714;28;20071;-85
2021/04/07 09:31:25;;;;;;;3.60;2.08;;;;;;;5.72;52.81;100405.94;5104337;28;20116;-85
2021/04/07 09:33:54;;;;;;;4.38;1.67;;;;;;;5.72;52.19;100419.06;5111522;28;20044;-84
2021/04/07 09:36:27;;;;;;;4.93;2.40;;;;;;;5.74;52.05;100412.03;5118880;28;20048;-84
2021/04/07 09:39:06;;;;;;;5.20;2.10;;;;;;;5.81;52.54;100418.84;5124278;28;20063;-84
2021/04/07 09:41:35;;;;;;;6.55;2.28;;;;;;;5.71;52.84;100417.34;5124058;28;20029;-85
2021/04/07 09:44:05;;;;;;;8.88;2.70;;;;;;;5.65;52.96;100420.16;5138544;27;20067;-85
2021/04/07 09:46:33;;;;;;;6.60;2.13;;;;;;;5.57;54.46;100419.47;5144533;27;20054;-86
2021/04/07 09:49:12;;;;;;;4.93;2.13;;;;;;;5.52;55.33;100416.09;5143217;27;20055;-86
2021/04/07 09:51:44;;;;;;;3.65;1.73;;;;;;;5.47;54.49;100420.63;5138471;27;20044;-85
2021/04/07 09:54:21;;;;;;;6.20;2.10;;;;;;;5.43;55.35;100411.09;5124431;28;20047;-85
2021/04/07 09:56:58;;;;;;;4.07;2.00;;;;;;;5.45;54.36;100420.66;5146514;27;20070;-83
2021/04/07 09:59:34;;;;;;;10.25;2.65;;;;;;;5.57;53.80;100414.22;5121392;27;20044;-84
2021/04/07 10:02:02;;;;;;;4.88;1.70;;;;;;;5.57;52.02;100424.75;5095405;28;20063;-83
2021/04/07 10:04:32;;;;;;;6.15;1.75;;;;;;;5.50;51.61;100417.94;5112076;28;20075;-85
2021/04/07 10:07:21;;;;;;;4.88;1.70;;;;;;;5.41;51.55;100429.53;5110360;27;20104;-82
2021/04/07 10:09:52;;;;;;;7.22;1.40;;;;;;;5.33;50.57;100421.00;5107506;27;20051;-83
2021/04/07 10:12:21;;;;;;;4.43;1.90;;;;;;;5.42;51.20;100425.13;5106758;27;20060;-85
2021/04/07 10:14:49;;;;;;;9.52;1.80;;;;;;;5.54;50.99;100428.31;5111756;28;20051;-84
2021/04/07 10:17:20;;;;;;;10.27;2.20;;;;;;;5.65;51.16;100430.66;5110511;27;20561;-85
2021/04/07 10:19:47;;;;;;;8.68;2.58;;;;;;;5.84;50.60;100434.50;5111108;28;20051;-84
2021/04/07 10:22:23;;;;;;;6.90;2.33;;;;;;;5.84;50.95;100431.88;5113211;27;20047;-85
2021/04/07 10:24:56;;;;;;;5.88;2.35;;;;;;;5.90;50.69;100431.75;5119987;28;20063;-84
2021/04/07 10:27:27;;;;;;;6.70;2.30;;;;;;;5.96;50.20;100436.84;5114152;27;20040;-86
2021/04/07 10:30:13;;;;;;;8.98;2.10;;;;;;;5.98;51.47;100445.53;5125728;27;20058;-87
2021/04/07 10:32:48;;;;;;;6.15;2.00;;;;;;;5.89;52.12;100437.91;5122497;27;20126;-83
2021/04/07 10:35:21;;;;;;;8.07;2.38;;;;;;;5.79;52.84;100446.06;5119650;27;20097;-83
2021/04/07 10:38:07;;;;;;;5.57;1.83;;;;;;;5.59;53.72;100436.94;5118375;27;20047;-83
2021/04/07 10:40:39;;;;;;;6.43;1.60;;;;;;;5.66;54.47;100449.94;5099512;28;21791;-84
2021/04/07 10:43:20;;;;;;;7.65;2.13;;;;;;;5.63;55.18;100464.84;5124539;27;20055;-83
2021/04/07 10:46:03;;;;;;;12.20;2.30;;;;;;;5.54;56.07;100454.56;5121259;28;20051;-83
2021/04/07 10:48:35;;;;;;;5.22;2.28;;;;;;;5.51;56.30;100457.25;5127387;28;20039;-84
2021/04/07 10:51:04;;;;;;;6.40;2.28;;;;;;;5.47;57.56;100463.53;5132691;28;20151;-83
2021/04/07 10:53:36;;;;;;;7.25;2.38;;;;;;;5.29;58.51;100435.09;5122486;28;20055;-83
2021/04/07 10:56:18;;;;;;;6.00;2.30;;;;;;;5.40;58.24;100467.19;5136484;27;20186;-83
2021/04/07 10:59:02;;;;;;;6.18;2.28;;;;;;;5.19;58.84;100484.34;5124718;27;20075;-83
2021/04/07 11:01:31;;;;;;;6.85;2.25;;;;;;;5.03;59.44;100484.72;5120262;27;20085;-82
2021/04/07 11:04:14;;;;;;;3.28;1.80;;;;;;;4.93;59.67;100478.81;5105311;28;20060;-84
2021/04/07 11:06:40;;;;;;;6.55;2.20;;;;;;;4.80;60.14;100491.34;5122566;28;20058;-81
2021/04/07 11:09:12;;;;;;;6.60;2.20;;;;;;;4.75;59.62;100490.56;5129355;27;20048;-84
2021/04/07 11:11:40;;;;;;;5.55;2.42;;;;;;;4.75;59.69;100484.47;5120672;28;20115;-84
2021/04/07 11:14:08;;;;;;;4.28;1.90;;;;;;;4.83;58.66;100480.78;5111095;28;20032;-83
2021/04/07 11:16:35;;;;;;;6.43;2.30;;;;;;;4.88;58.90;100475.41;5125780;27;20044;-83
2021/04/07 11:19:13;;;;;;;5.93;2.55;;;;;;;5.08;59.78;100472.34;5126479;27;20194;-82
2021/04/07 11:21:45;;;;;;;9.88;2.90;;;;;;;5.25;59.64;100465.78;5126683;28;20067;-82
2021/04/07 11:24:11;;;;;;;7.53;2.72;;;;;;;5.36;57.93;100472.53;5135345;27;20031;-82
2021/04/07 11:26:37;;;;;;;5.72;2.00;;;;;;;5.42;57.73;100480.28;5135888;27;20051;-80
2021/04/07 11:29:07;;;;;;;3.58;1.85;;;;;;;5.42;57.91;100473.25;5129200;27;20055;-82
2021/04/07 11:31:34;;;;;;;6.47;2.38;;;;;;;5.41;58.43;100475.94;5119671;28;20122;-82
2021/04/07 11:34:06;;;;;;;6.05;2.28;;;;;;;5.45;58.00;100467.09;5126348;27;20058;-81
2021/04/07 11:39:34;;;;;;;8.25;2.50;;;;;;;5.77;57.54;100495.16;5114330;28;20048;-86
2021/04/07 11:42:18;;;;;;;7.50;2.20;;;;;;;5.90;57.30;100494.84;5090941;28;20043;-84
2021/04/07 11:44:47;;;;;;;4.93;2.28;;;;;;;5.81;56.81;100495.06;5113014;28;20130;-83